Time;durP1;ratioP1;P1;durP2;ratioP2;P2;SDS_P1;SDS_P2;PMS_P1;PMS_P2;Temp;Humidity;BMP_temperature;BMP_pressure;BME280_temperature;BME280_humidity;BME280_pressure;Samples;Min_cycle;Max_cycle;Signal;HPM_P1;HPM_P2
2022/06/12 00:00:23;;;;;;;0.40;0.20;;;16.70;99.90;;;;;;5052820;28;20420;-70
2022/06/12 00:02:49;;;;;;;0.40;0.20;;;16.60;99.90;;;;;;5069506;28;20401;-70
2022/06/12 00:05:17;;;;;;;0.40;0.30;;;16.70;99.90;;;;;;5058187;28;20893;-70
2022/06/12 00:07:43;;;;;;;0.40;0.20;;;16.80;99.90;;;;;;5057255;28;20412;-70
2022/06/12 00:10:10;;;;;;;0.40;0.20;;;16.80;99.90;;;;;;5067033;28;20388;-71
2022/06/12 00:12:37;;;;;;;0.40;0.30;;;16.60;99.90;;;;;;5070439;28;20403;-70
2022/06/12 00:15:03;;;;;;;0.40;0.20;;;16.70;99.90;;;;;;5071249;28;20737;-70
2022/06/12 00:17:30;;;;;;;0.40;0.30;;;16.70;99.90;;;;;;5070153;28;20380;-70
2022/06/12 00:19:55;;;;;;;0.40;0.20;;;16.60;99.90;;;;;;5070892;28;20384;-70
2022/06/12 00:22:21;;;;;;;0.40;0.30;;;16.60;99.90;;;;;;5070139;28;20390;-70
2022/06/12 00:24:47;;;;;;;0.40;0.20;;;16.60;99.90;;;;;;5071248;28;20470;-70
2022/06/12 00:27:12;;;;;;;0.40;0.20;;;16.70;99.90;;;;;;5070334;28;20383;-71
2022/06/12 00:29:39;;;;;;;0.40;0.30;;;16.60;99.90;;;;;;5070443;28;20479;-69
2022/06/12 00:32:13;;;;;;;0.40;0.20;;;16.60;99.90;;;;;;5071082;28;20728;-70
2022/06/12 00:34:48;;;;;;;0.70;0.70;;;16.50;99.90;;;;;;5069910;28;20463;-70
2022/06/12 00:37:14;;;;;;;0.40;0.20;;;16.50;99.90;;;;;;5070408;28;20391;-71
2022/06/12 00:39:42;;;;;;;1.00;0.90;;;16.30;99.90;;;;;;5052938;28;20864;-70
2022/06/12 00:42:19;;;;;;;0.60;0.60;;;16.30;99.90;;;;;;5070825;28;20414;-69
2022/06/12 00:44:45;;;;;;;0.40;0.20;;;16.40;99.90;;;;;;5070666;28;20408;-69
2022/06/12 00:47:14;;;;;;;0.40;0.30;;;16.30;99.90;;;;;;5053160;28;20902;-70
2022/06/12 00:49:45;;;;;;;0.40;0.30;;;16.30;99.90;;;;;;5070479;28;20933;-70
2022/06/12 00:52:32;;;;;;;0.40;0.30;;;16.20;99.90;;;;;;5071009;28;20387;-69
2022/06/12 00:55:05;;;;;;;0.60;0.60;;;16.20;99.90;;;;;;5071001;28;20414;-69
2022/06/12 00:57:31;;;;;;;0.40;0.20;;;16.10;99.90;;;;;;5069688;28;20371;-70
2022/06/12 01:00:01;;;;;;;0.40;0.20;;;16.10;99.90;;;;;;5070253;28;20384;-69
2022/06/12 01:02:32;;;;;;;0.40;0.30;;;16.10;99.90;;;;;;5070225;28;20384;-70
2022/06/12 01:07:49;;;;;;;0.40;0.20;;;16.20;99.90;;;;;;5070814;28;20371;-70
2022/06/12 01:10:18;;;;;;;0.40;0.30;;;16.10;99.90;;;;;;5070103;28;20492;-71
2022/06/12 01:12:48;;;;;;;0.40;0.30;;;16.10;99.90;;;;;;5070053;28;20498;-70
2022/06/12 01:15:25;;;;;;;0.40;0.30;;;16.00;99.90;;;;;;5070306;28;20387;-70
2022/06/12 01:17:53;;;;;;;0.40;0.30;;;16.00;99.90;;;;;;5070388;28;20364;-70
2022/06/12 01:20:25;;;;;;;0.40;0.20;;;15.90;99.90;;;;;;5069746;28;20495;-70
2022/06/12 01:23:15;;;;;;;0.40;0.30;;;15.90;99.90;;;;;;5070646;28;20379;-69
2022/06/12 01:26:02;;;;;;;0.40;0.20;;;15.80;99.90;;;;;;5070340;28;20458;-70
2022/06/12 01:28:47;;;;;;;0.40;0.20;;;15.80;99.90;;;;;;5069108;28;20918;-70
2022/06/12 01:31:50;;;;;;;0.40;0.30;;;15.80;99.90;;;;;;5070507;28;20387;-70
2022/06/12 01:34:37;;;;;;;0.40;0.20;;;15.80;99.90;;;;;;5071451;28;20797;-71
2022/06/12 01:37:21;;;;;;;0.40;0.20;;;15.70;99.90;;;;;;5072415;28;20389;-69
2022/06/12 01:40:16;;;;;;;0.40;0.30;;;15.80;99.90;;;;;;5074174;28;20478;-69
2022/06/12 01:42:51;;;;;;;0.40;0.20;;;15.70;99.90;;;;;;5070027;28;20470;-70
2022/06/12 01:45:43;;;;;;;0.40;0.30;;;15.70;99.90;;;;;;5070242;28;20411;-70
2022/06/12 01:48:40;;;;;;;0.40;0.30;;;15.70;99.90;;;;;;5073674;28;21005;-69
2022/06/12 01:51:30;;;;;;;0.40;0.20;;;15.70;99.90;;;;;;5052571;28;20430;-70
2022/06/12 01:53:58;;;;;;;0.40;0.20;;;15.80;99.90;;;;;;5074043;28;20388;-69
2022/06/12 01:56:27;;;;;;;0.40;0.30;;;15.60;99.90;;;;;;5073194;28;20395;-70
2022/06/12 01:59:11;;;;;;;0.40;0.30;;;15.70;99.90;;;;;;5073679;28;20396;-70
2022/06/12 02:01:59;;;;;;;0.40;0.30;;;15.80;99.90;;;;;;5073139;28;20686;-69
2022/06/12 02:04:35;;;;;;;0.40;0.20;;;15.60;99.90;;;;;;5072920;28;20383;-70
2022/06/12 02:07:04;;;;;;;0.40;0.20;;;15.60;99.90;;;;;;5073911;28;20398;-70
2022/06/12 02:09:36;;;;;;;0.40;0.20;;;15.80;99.90;;;;;;5072502;28;20787;-70
2022/06/12 02:15:02;;;;;;;1.00;0.80;;;15.60;99.90;;;;;;5073866;28;20918;-69
2022/06/12 02:17:34;;;;;;;0.40;0.20;;;15.70;99.90;;;;;;5072839;28;20404;-69
2022/06/12 02:20:04;;;;;;;0.50;0.50;;;15.60;99.90;;;;;;5073767;28;20827;-69
2022/06/12 02:22:31;;;;;;;0.40;0.20;;;15.50;99.90;;;;;;5072655;28;20398;-70
2022/06/12 02:25:19;;;;;;;0.40;0.30;;;15.50;99.90;;;;;;5073724;28;20455;-70
2022/06/12 02:28:01;;;;;;;0.40;0.30;;;15.50;99.90;;;;;;5072691;28;20426;-69
2022/06/12 02:30:38;;;;;;;0.40;0.20;;;15.40;99.90;;;;;;5072712;28;20957;-69
2022/06/12 02:33:07;;;;;;;0.40;0.20;;;15.50;99.90;;;;;;5073476;28;20709;-69
2022/06/12 02:35:41;;;;;;;0.40;0.30;;;15.40;99.90;;;;;;5077978;28;20400;-70
2022/06/12 02:38:31;;;;;;;0.40;0.30;;;15.50;99.90;;;;;;5073253;28;20387;-69
2022/06/12 02:41:19;;;;;;;0.60;0.60;;;15.50;99.90;;;;;;5073383;28;20379;-69
2022/06/12 02:43:47;;;;;;;0.40;0.30;;;15.40;99.90;;;;;;5072215;28;20416;-69
2022/06/12 02:46:23;;;;;;;0.40;0.30;;;15.40;99.90;;;;;;5073640;28;20376;-69
2022/06/12 02:48:49;;;;;;;1.10;1.10;;;15.30;99.90;;;;;;5060932;28;20387;-69
2022/06/12 02:51:34;;;;;;;0.50;0.50;;;15.30;99.90;;;;;;5073052;28;20464;-69
2022/06/12 02:54:09;;;;;;;0.70;0.70;;;15.30;99.90;;;;;;5072757;28;20817;-69
2022/06/12 02:57:11;;;;;;;1.00;1.00;;;15.30;99.90;;;;;;5071563;28;20398;-70
2022/06/12 02:59:55;;;;;;;0.40;0.20;;;15.20;99.90;;;;;;5049863;28;20879;-70
2022/06/12 03:02:32;;;;;;;0.40;0.40;;;15.20;99.90;;;;;;5072482;28;20417;-71
2022/06/12 03:05:21;;;;;;;0.40;0.30;;;15.10;99.90;;;;;;5073080;28;20380;-69
2022/06/12 03:07:53;;;;;;;0.40;0.30;;;15.00;99.90;;;;;;5071718;28;20462;-69
2022/06/12 03:10:25;;;;;;;0.40;0.20;;;15.10;99.90;;;;;;5072770;28;20425;-69
2022/06/12 03:12:51;;;;;;;0.40;0.20;;;15.10;99.90;;;;;;5072804;28;20384;-70
2022/06/12 03:15:48;;;;;;;0.40;0.20;;;15.10;99.90;;;;;;5072338;28;20471;-69
2022/06/12 03:18:33;;;;;;;0.40;0.20;;;15.10;99.90;;;;;;5052059;28;20410;-69
2022/06/12 03:21:17;;;;;;;0.40;0.30;;;15.10;99.90;;;;;;5072705;28;20376;-71
2022/06/12 03:23:52;;;;;;;0.40;0.30;;;15.20;99.90;;;;;;5071687;28;21009;-70
2022/06/12 03:26:51;;;;;;;0.40;0.20;;;15.10;99.90;;;;;;5072442;28;20387;-70
2022/06/12 03:29:29;;;;;;;0.40;0.20;;;15.10;99.90;;;;;;5072309;28;20376;-70
2022/06/12 03:32:19;;;;;;;0.40;0.20;;;15.10;99.90;;;;;;5071995;28;20421;-70
2022/06/12 03:34:56;;;;;;;0.40;0.30;;;15.10;99.90;;;;;;5076852;28;20385;-71
2022/06/12 03:37:30;;;;;;;0.40;0.30;;;15.10;99.90;;;;;;5092263;28;20707;-71
2022/06/12 03:40:08;;;;;;;0.40;0.20;;;15.20;99.90;;;;;;5080074;28;20403;-70
2022/06/12 03:42:45;;;;;;;0.40;0.20;;;15.00;99.90;;;;;;5071046;28;20451;-71
2022/06/12 03:45:17;;;;;;;0.40;0.20;;;15.10;99.90;;;;;;5071558;28;20414;-70
2022/06/12 03:47:52;;;;;;;0.40;0.20;;;15.10;99.90;;;;;;5071218;28;20457;-71
2022/06/12 03:50:28;;;;;;;0.40;0.20;;;15.00;99.90;;;;;;5071605;28;20387;-70
2022/06/12 03:52:54;;;;;;;0.40;0.20;;;14.90;99.90;;;;;;5071872;28;20410;-70
2022/06/12 03:57:50;;;;;;;0.40;0.20;;;14.90;99.90;;;;;;5071892;28;20845;-70
2022/06/12 03:58:16;;;;;;;0.40;0.20;;;14.90;99.90;;;;;;5071178;28;20941;-70
2022/06/12 04:00:45;;;;;;;0.40;0.20;;;15.00;99.90;;;;;;5070768;28;20441;-71
2022/06/12 04:03:19;;;;;;;0.40;0.30;;;14.90;99.90;;;;;;5071346;28;20457;-70
2022/06/12 04:06:04;;;;;;;0.40;0.20;;;14.90;99.90;;;;;;5070902;28;20375;-70
2022/06/12 04:08:38;;;;;;;0.50;0.50;;;14.90;99.90;;;;;;5070668;28;20440;-71
2022/06/12 04:11:07;;;;;;;0.40;0.22;;;14.90;99.90;;;;;;5070974;28;20423;-70
2022/06/12 04:13:37;;;;;;;0.40;0.20;;;14.90;99.90;;;;;;5070716;28;20392;-70
2022/06/12 04:16:09;;;;;;;0.40;0.30;;;15.00;99.90;;;;;;5071252;28;20871;-70
2022/06/12 04:18:35;;;;;;;0.40;0.30;;;15.00;99.90;;;;;;5070389;28;20911;-70
2022/06/12 04:21:06;;;;;;;0.40;0.32;;;15.00;99.90;;;;;;5071040;28;20410;-70
2022/06/12 04:23:47;;;;;;;0.40;0.20;;;15.10;99.90;;;;;;5070234;28;20379;-71
2022/06/12 04:26:34;;;;;;;0.40;0.30;;;15.00;99.90;;;;;;5070599;28;20403;-70
2022/06/12 04:29:11;;;;;;;0.40;0.20;;;15.00;99.90;;;;;;5071174;28;20401;-70
2022/06/12 04:31:40;;;;;;;0.40;0.20;;;15.00;99.90;;;;;;5090678;28;20520;-70
2022/06/12 04:34:26;;;;;;;0.40;0.20;;;15.00;99.90;;;;;;5073159;28;20388;-70
2022/06/12 04:37:19;;;;;;;0.40;0.20;;;15.00;99.90;;;;;;5070583;28;20376;-70
2022/06/12 04:39:46;;;;;;;0.40;0.30;;;15.10;99.90;;;;;;5069788;28;20391;-69
2022/06/12 04:42:14;;;;;;;0.40;0.20;;;15.10;99.90;;;;;;5070709;28;20387;-69
2022/06/12 04:44:40;;;;;;;1.40;1.30;;;15.10;99.90;;;;;;5069862;28;20491;-69
2022/06/12 04:47:11;;;;;;;0.40;0.20;;;15.20;99.90;;;;;;5070925;28;20770;-69
2022/06/12 04:49:37;;;;;;;0.40;0.20;;;15.20;99.90;;;;;;5069697;28;20392;-69
2022/06/12 04:52:06;;;;;;;0.40;0.20;;;15.30;99.90;;;;;;5070373;28;20411;-69
2022/06/12 04:54:33;;;;;;;0.40;0.30;;;15.20;99.90;;;;;;5069880;28;20429;-70
2022/06/12 04:56:59;;;;;;;0.40;0.32;;;15.40;99.90;;;;;;5070757;28;20376;-69
2022/06/12 04:59:25;;;;;;;0.40;0.20;;;15.40;99.90;;;;;;5069918;28;20721;-69
2022/06/12 05:01:51;;;;;;;0.40;0.20;;;15.60;99.90;;;;;;5069753;28;20790;-69
2022/06/12 05:04:19;;;;;;;0.40;0.30;;;15.60;99.90;;;;;;5070567;28;20384;-69
2022/06/12 05:06:45;;;;;;;0.40;0.30;;;15.70;99.90;;;;;;5069698;28;20928;-69
2022/06/12 05:09:12;;;;;;;0.40;0.40;;;15.80;99.90;;;;;;5070370;28;20745;-69
2022/06/12 05:11:39;;;;;;;0.40;0.30;;;15.80;99.90;;;;;;5069885;28;20425;-69
2022/06/12 05:14:05;;;;;;;0.40;0.20;;;15.90;99.90;;;;;;5070240;28;20388;-69
2022/06/12 05:16:38;;;;;;;0.40;0.20;;;15.90;99.90;;;;;;5070082;28;20391;-70
2022/06/12 05:19:07;;;;;;;0.50;0.30;;;15.90;99.90;;;;;;5070339;28;20413;-69
2022/06/12 05:21:33;;;;;;;0.40;0.20;;;16.10;99.90;;;;;;5072216;28;20388;-70
2022/06/12 05:24:00;;;;;;;0.40;0.20;;;16.10;99.90;;;;;;5074303;28;20911;-69
2022/06/12 05:26:26;;;;;;;0.40;0.30;;;16.20;99.90;;;;;;5056167;28;20888;-69
2022/06/12 05:28:51;;;;;;;0.40;0.30;;;16.20;99.90;;;;;;5073477;28;20560;-69
2022/06/12 05:31:17;;;;;;;0.40;0.23;;;16.20;99.90;;;;;;5074316;28;20506;-69
2022/06/12 05:33:45;;;;;;;0.50;0.30;;;16.20;99.90;;;;;;5073689;28;20383;-69
2022/06/12 05:36:12;;;;;;;0.40;0.30;;;16.30;99.90;;;;;;5073520;28;20387;-69
2022/06/12 05:38:39;;;;;;;0.40;0.20;;;16.50;99.90;;;;;;5073588;28;20415;-69
2022/06/12 05:41:05;;;;;;;0.40;0.20;;;16.60;99.90;;;;;;5073344;28;20438;-69
2022/06/12 05:43:30;;;;;;;0.40;0.30;;;16.60;99.90;;;;;;5073227;28;20406;-70
2022/06/12 05:45:56;;;;;;;0.40;0.20;;;16.70;99.90;;;;;;5073391;28;20419;-69
2022/06/12 05:48:22;;;;;;;0.40;0.20;;;16.80;99.90;;;;;;5073859;28;20495;-69
2022/06/12 05:50:57;;;;;;;0.40;0.30;;;16.90;99.90;;;;;;5073157;28;20912;-69
2022/06/12 05:53:26;;;;;;;0.70;0.60;;;17.10;99.90;;;;;;5090673;28;20390;-69
2022/06/12 05:55:53;;;;;;;0.40;0.20;;;17.20;99.90;;;;;;5071537;28;20713;-69
2022/06/12 05:58:22;;;;;;;0.50;0.50;;;17.30;99.90;;;;;;5074594;28;20405;-69
2022/06/12 06:00:49;;;;;;;0.40;0.20;;;17.30;99.90;;;;;;5070119;28;20372;-69
2022/06/12 06:03:15;;;;;;;0.40;0.22;;;17.40;99.90;;;;;;5074152;28;20958;-69
2022/06/12 06:05:43;;;;;;;0.40;0.30;;;17.50;99.90;;;;;;5071873;28;20391;-68
2022/06/12 06:08:10;;;;;;;0.40;0.20;;;17.50;99.90;;;;;;5070947;28;20383;-68
2022/06/12 06:10:36;;;;;;;0.40;0.25;;;17.60;99.90;;;;;;5071902;28;20465;-69
2022/06/12 06:13:02;;;;;;;0.40;0.20;;;17.60;99.90;;;;;;5072487;28;20419;-69
2022/06/12 06:15:28;;;;;;;0.40;0.40;;;17.70;99.90;;;;;;5072779;28;20427;-69
2022/06/12 06:17:54;;;;;;;0.40;0.20;;;17.80;99.90;;;;;;5068117;28;20561;-69
2022/06/12 06:20:26;;;;;;;0.70;0.70;;;17.90;99.90;;;;;;5067315;28;20403;-69
2022/06/12 06:22:53;;;;;;;0.40;0.30;;;18.00;99.90;;;;;;5068877;28;20544;-69
2022/06/12 06:25:20;;;;;;;0.40;0.20;;;18.10;99.90;;;;;;5068434;28;20786;-69
2022/06/12 06:27:46;;;;;;;0.40;0.20;;;18.20;99.90;;;;;;5072376;28;20498;-69
2022/06/12 06:30:13;;;;;;;0.40;0.20;;;18.20;99.90;;;;;;5073195;28;20418;-68
2022/06/12 06:32:39;;;;;;;0.40;0.20;;;18.30;99.90;;;;;;5070472;28;20392;-69
2022/06/12 06:35:06;;;;;;;0.40;0.30;;;18.50;99.90;;;;;;5073293;28;20410;-69
2022/06/12 06:37:33;;;;;;;0.40;0.20;;;18.50;99.90;;;;;;5072465;28;20400;-68
2022/06/12 06:39:59;;;;;;;0.40;0.22;;;18.60;99.90;;;;;;5072480;28;20387;-69
2022/06/12 06:42:25;;;;;;;0.40;0.20;;;18.80;99.90;;;;;;5071811;28;20928;-68
2022/06/12 06:47:38;;;;;;;0.70;0.70;;;18.90;99.90;;;;;;5030676;28;20471;-69
2022/06/12 06:50:06;;;;;;;0.40;0.20;;;19.20;99.90;;;;;;5066457;28;20918;-68
2022/06/12 06:52:32;;;;;;;0.40;0.20;;;19.50;99.90;;;;;;5071960;28;20406;-68
2022/06/12 06:54:58;;;;;;;0.50;0.50;;;19.60;99.90;;;;;;5072017;28;20931;-69
2022/06/12 06:57:23;;;;;;;0.40;0.20;;;19.70;99.90;;;;;;5071503;28;20880;-69
2022/06/12 06:59:49;;;;;;;0.40;0.20;;;19.80;99.90;;;;;;5070856;28;20384;-69
2022/06/12 07:02:15;;;;;;;0.40;0.30;;;20.10;99.90;;;;;;5054102;28;20751;-69
2022/06/12 07:04:41;;;;;;;0.40;0.20;;;20.30;99.90;;;;;;5070477;28;20965;-69
2022/06/12 07:07:08;;;;;;;0.60;0.60;;;20.50;99.90;;;;;;5071419;28;20402;-68
2022/06/12 07:09:35;;;;;;;0.40;0.20;;;20.50;99.90;;;;;;5065475;28;20400;-69
2022/06/12 07:12:01;;;;;;;0.40;0.30;;;20.60;99.90;;;;;;5070414;28;20489;-68
2022/06/12 07:14:28;;;;;;;0.40;0.20;;;20.60;99.90;;;;;;5071280;28;20391;-69
2022/06/12 07:16:55;;;;;;;0.40;0.20;;;20.50;99.90;;;;;;5069631;28;20396;-69
2022/06/12 07:19:21;;;;;;;0.40;0.30;;;20.50;99.90;;;;;;5080644;28;20393;-69
2022/06/12 07:21:47;;;;;;;0.40;0.20;;;20.60;99.90;;;;;;5076452;28;20400;-69
2022/06/12 07:24:12;;;;;;;0.50;0.30;;;20.90;99.90;;;;;;5070932;28;20756;-68
2022/06/12 07:26:41;;;;;;;0.40;0.30;;;21.00;99.90;;;;;;5069155;28;20899;-68
2022/06/12 07:29:08;;;;;;;0.40;0.20;;;20.90;99.90;;;;;;5070867;28;20404;-68
2022/06/12 07:31:34;;;;;;;0.40;0.30;;;20.80;99.90;;;;;;5070825;28;20771;-68
2022/06/12 07:34:00;;;;;;;0.70;0.52;;;20.70;99.90;;;;;;5071531;28;20380;-69
2022/06/12 07:36:26;;;;;;;0.50;0.50;;;20.80;99.90;;;;;;5070527;28;20392;-70
2022/06/12 07:38:53;;;;;;;0.40;0.30;;;21.00;99.90;;;;;;5071049;28;20916;-69
2022/06/12 07:41:19;;;;;;;0.40;0.20;;;21.00;99.90;;;;;;5072229;28;20429;-69
2022/06/12 07:43:47;;;;;;;0.40;0.30;;;21.10;99.90;;;;;;5070523;28;20404;-69
2022/06/12 07:46:16;;;;;;;0.40;0.20;;;21.10;99.90;;;;;;5067423;28;20451;-69
2022/06/12 07:48:43;;;;;;;1.30;0.80;;;21.10;99.90;;;;;;5072578;28;20380;-69
2022/06/12 07:51:12;;;;;;;0.40;0.20;;;21.30;99.90;;;;;;5071562;28;20415;-69
2022/06/12 07:53:38;;;;;;;0.40;0.30;;;21.60;99.90;;;;;;5076625;28;20538;-69
2022/06/12 07:56:05;;;;;;;0.40;0.20;;;21.50;99.90;;;;;;5076306;28;20395;-69
2022/06/12 07:58:31;;;;;;;0.40;0.30;;;21.40;99.90;;;;;;5078271;28;20421;-69
2022/06/12 08:01:01;;;;;;;0.40;0.30;;;21.60;99.90;;;;;;5078250;28;20535;-68
2022/06/12 08:03:28;;;;;;;0.40;0.20;;;21.80;99.90;;;;;;5071246;28;20387;-68
2022/06/12 08:05:55;;;;;;;0.40;0.20;;;21.90;99.90;;;;;;5085927;28;20397;-68
2022/06/12 08:08:21;;;;;;;0.40;0.20;;;21.90;99.90;;;;;;5091700;28;20878;-69
2022/06/12 08:10:48;;;;;;;0.90;0.70;;;22.00;99.90;;;;;;5064721;28;20490;-69
2022/06/12 08:13:13;;;;;;;0.40;0.20;;;22.00;99.90;;;;;;5071133;28;20483;-69
2022/06/12 08:15:45;;;;;;;0.40;0.30;;;21.90;99.90;;;;;;5069636;28;20931;-69
2022/06/12 08:18:12;;;;;;;0.40;0.20;;;22.00;99.90;;;;;;5070258;28;20417;-69
2022/06/12 08:20:45;;;;;;;0.40;0.30;;;22.00;99.90;;;;;;5070162;28;20403;-70
2022/06/12 08:23:28;;;;;;;0.50;0.50;;;22.10;99.90;;;;;;5071031;28;20380;-68
2022/06/12 08:25:55;;;;;;;0.50;0.50;;;22.30;99.90;;;;;;5070368;28;20474;-68
2022/06/12 08:28:22;;;;;;;0.40;0.30;;;22.50;99.90;;;;;;5069838;28;20441;-69
2022/06/12 08:30:48;;;;;;;0.90;0.60;;;22.30;99.90;;;;;;5075474;28;20402;-68
2022/06/12 08:33:14;;;;;;;0.90;0.70;;;22.40;99.90;;;;;;5091112;28;20385;-69
2022/06/12 08:35:40;;;;;;;0.40;0.20;;;22.50;99.90;;;;;;5070532;28;20396;-70
2022/06/12 08:38:06;;;;;;;0.40;0.20;;;22.70;99.90;;;;;;5065293;28;20391;-69
2022/06/12 08:40:40;;;;;;;0.80;0.80;;;22.60;99.90;;;;;;5064383;28;20399;-69
2022/06/12 08:43:22;;;;;;;0.40;0.22;;;22.60;99.90;;;;;;5058364;28;20409;-69
2022/06/12 08:45:50;;;;;;;0.40;0.20;;;22.70;99.90;;;;;;5058359;28;20548;-69
2022/06/12 08:48:44;;;;;;;0.50;0.30;;;22.80;99.30;;;;;;5067934;28;20403;-68
2022/06/12 08:51:17;;;;;;;0.80;0.80;;;23.00;99.40;;;;;;5066052;28;20412;-69
2022/06/12 08:53:55;;;;;;;0.40;0.30;;;23.00;98.50;;;;;;5069970;28;20411;-69
2022/06/12 08:56:54;;;;;;;0.40;0.20;;;23.00;98.00;;;;;;5060513;28;20551;-68
2022/06/12 08:59:40;;;;;;;0.40;0.30;;;23.10;97.40;;;;;;5066795;28;20411;-68
2022/06/12 09:02:18;;;;;;;0.40;0.20;;;23.10;97.60;;;;;;5053471;28;20436;-68
2022/06/12 09:04:43;;;;;;;0.40;0.20;;;23.10;96.80;;;;;;5050007;28;20381;-71
2022/06/12 09:07:15;;;;;;;0.40;0.20;;;23.20;97.40;;;;;;5065934;28;20521;-68
2022/06/12 09:10:06;;;;;;;0.40;0.20;;;23.30;96.90;;;;;;5068738;28;20748;-69
2022/06/12 09:12:44;;;;;;;0.70;0.70;;;23.40;97.10;;;;;;5066118;28;20424;-68
2022/06/12 09:15:15;;;;;;;0.40;0.30;;;23.50;95.70;;;;;;5068555;28;20394;-68
2022/06/12 09:17:51;;;;;;;0.40;0.20;;;23.40;98.20;;;;;;5056611;28;20419;-69
2022/06/12 09:20:47;;;;;;;0.40;0.30;;;23.60;97.60;;;;;;5038346;28;20758;-67
2022/06/12 09:23:15;;;;;;;0.40;0.20;;;23.80;95.10;;;;;;5064419;28;20430;-68
2022/06/12 09:25:50;;;;;;;0.40;0.30;;;23.90;94.00;;;;;;5069876;28;20392;-68
2022/06/12 09:28:54;;;;;;;0.40;0.30;;;24.00;93.40;;;;;;5068994;28;20737;-68
2022/06/12 09:31:29;;;;;;;0.40;0.40;;;24.00;92.60;;;;;;5056948;28;20510;-68
2022/06/12 09:34:21;;;;;;;0.40;0.30;;;24.20;93.20;;;;;;5062273;28;20489;-68
2022/06/12 09:36:59;;;;;;;0.40;0.20;;;24.20;93.50;;;;;;5042331;28;20407;-69
2022/06/12 09:39:41;;;;;;;0.70;0.50;;;24.20;93.00;;;;;;5067987;28;20428;-68
2022/06/12 09:42:19;;;;;;;0.40;0.20;;;24.40;92.90;;;;;;5063167;28;20412;-68
2022/06/12 09:45:00;;;;;;;0.80;0.70;;;24.50;91.40;;;;;;5067781;28;20867;-69
2022/06/12 09:47:45;;;;;;;0.40;0.20;;;24.50;91.50;;;;;;5067937;28;20392;-68
2022/06/12 09:50:16;;;;;;;0.40;0.20;;;24.40;90.50;;;;;;5071646;28;20478;-68
2022/06/12 09:53:03;;;;;;;0.40;0.25;;;24.50;90.60;;;;;;5068655;28;20410;-68
2022/06/12 09:55:44;;;;;;;0.40;0.20;;;24.50;91.00;;;;;;5066744;28;20390;-68
2022/06/12 09:58:22;;;;;;;0.40;0.20;;;24.50;91.50;;;;;;5063652;28;20395;-68
2022/06/12 10:01:04;;;;;;;0.40;0.30;;;24.70;90.20;;;;;;5067431;28;20399;-68
2022/06/12 10:03:33;;;;;;;0.40;0.30;;;24.70;89.90;;;;;;5067700;28;20399;-68
2022/06/12 10:06:08;;;;;;;0.40;0.30;;;24.70;90.10;;;;;;5066476;28;20403;-68
2022/06/12 10:08:49;;;;;;;0.40;0.30;;;25.00;88.40;;;;;;5070252;28;20404;-68
2022/06/12 10:11:31;;;;;;;0.40;0.25;;;24.90;90.90;;;;;;5070422;28;20843;-68
2022/06/12 10:14:06;;;;;;;0.40;0.30;;;25.10;90.00;;;;;;5067295;28;20499;-68
2022/06/12 10:16:37;;;;;;;0.40;0.30;;;25.20;89.10;;;;;;5069742;28;20399;-68
2022/06/12 10:19:10;;;;;;;0.50;0.50;;;25.20;88.70;;;;;;5064971;28;20396;-68
2022/06/12 10:21:41;;;;;;;0.50;0.47;;;25.60;89.00;;;;;;5068367;28;20498;-68
2022/06/12 10:24:09;;;;;;;0.40;0.30;;;25.70;87.30;;;;;;5069550;28;21038;-67
2022/06/12 10:26:35;;;;;;;0.50;0.40;;;25.90;86.20;;;;;;5068070;28;20491;-68
2022/06/12 10:29:11;;;;;;;0.40;0.20;;;25.70;81.50;;;;;;5073319;28;20387;-68
2022/06/12 10:31:59;;;;;;;0.40;0.30;;;25.60;84.40;;;;;;5069292;28;20419;-68
2022/06/12 10:34:30;;;;;;;0.40;0.20;;;25.80;82.10;;;;;;5071422;28;20380;-68
2022/06/12 10:37:09;;;;;;;0.40;0.27;;;25.80;82.80;;;;;;5053001;28;20725;-68
2022/06/12 10:39:35;;;;;;;0.40;0.30;;;25.80;80.20;;;;;;5070209;28;20372;-68
2022/06/12 10:42:04;;;;;;;0.50;0.40;;;26.10;79.10;;;;;;5071084;28;20387;-68
2022/06/12 10:44:42;;;;;;;0.40;0.30;;;26.00;79.80;;;;;;5069206;28;20407;-68
2022/06/12 10:47:29;;;;;;;0.40;0.30;;;26.00;77.50;;;;;;5071272;28;20422;-67
2022/06/12 10:50:21;;;;;;;0.40;0.30;;;26.30;78.10;;;;;;5068661;28;20411;-68
2022/06/12 10:52:52;;;;;;;0.40;0.30;;;26.40;78.10;;;;;;5063868;28;20396;-70
2022/06/12 10:55:38;;;;;;;0.50;0.40;;;26.30;77.50;;;;;;5071364;28;20403;-68
2022/06/12 10:58:36;;;;;;;0.40;0.20;;;26.40;79.50;;;;;;5069686;28;20376;-68
2022/06/12 11:01:10;;;;;;;0.40;0.30;;;26.30;74.30;;;;;;5070395;28;20419;-68
2022/06/12 11:03:43;;;;;;;0.40;0.30;;;26.60;76.70;;;;;;5070645;28;20423;-68
2022/06/12 11:06:43;;;;;;;0.40;0.30;;;26.60;77.40;;;;;;5072039;28;20392;-68
2022/06/12 11:09:36;;;;;;;0.40;0.20;;;26.70;75.10;;;;;;5017549;28;20392;-68
2022/06/12 11:12:46;;;;;;;0.40;0.30;;;26.90;76.30;;;;;;5065981;28;20471;-70
2022/06/12 11:15:43;;;;;;;0.40;0.30;;;27.30;73.20;;;;;;4958303;28;20414;-69
2022/06/12 11:18:30;;;;;;;0.40;0.30;;;27.30;69.70;;;;;;5067364;28;20396;-69
2022/06/12 11:20:56;;;;;;;0.40;0.30;;;27.40;71.50;;;;;;5071358;28;20379;-70
2022/06/12 11:24:06;;;;;;;0.40;0.20;;;27.40;69.40;;;;;;5072432;28;20388;-70
2022/06/12 11:26:44;;;;;;;0.40;0.30;;;27.60;68.60;;;;;;5041053;28;20487;-70
2022/06/12 11:29:10;;;;;;;0.40;0.20;;;27.30;66.90;;;;;;5071784;28;20380;-72
2022/06/12 11:32:13;;;;;;;0.40;0.23;;;27.70;65.80;;;;;;5072313;28;20403;-71
2022/06/12 11:34:50;;;;;;;0.40;0.20;;;27.60;63.90;;;;;;5054923;28;20440;-71
2022/06/12 11:37:35;;;;;;;0.40;0.20;;;27.80;64.30;;;;;;5071878;28;20925;-70
2022/06/12 11:40:14;;;;;;;0.40;0.30;;;28.40;65.40;;;;;;5074701;28;20396;-72
2022/06/12 11:42:56;;;;;;;0.40;0.30;;;29.40;60.60;;;;;;5072043;28;20387;-70
2022/06/12 11:45:54;;;;;;;0.40;0.20;;;30.10;58.90;;;;;;5075122;28;20497;-70
2022/06/12 11:48:36;;;;;;;0.50;0.30;;;30.80;58.90;;;;;;5092256;28;20409;-70
2022/06/12 11:51:22;;;;;;;0.40;0.20;;;31.40;57.50;;;;;;5091299;28;20438;-71
2022/06/12 11:54:29;;;;;;;0.43;0.30;;;31.50;57.10;;;;;;5086725;28;20406;-70
2022/06/12 11:57:02;;;;;;;0.40;0.30;;;31.60;56.40;;;;;;5062153;28;20426;-70
2022/06/12 11:59:43;;;;;;;0.40;0.22;;;31.80;55.40;;;;;;5066639;28;20391;-73
2022/06/12 12:02:16;;;;;;;0.40;0.30;;;32.40;52.90;;;;;;5051123;28;20523;-70
2022/06/12 12:05:04;;;;;;;0.40;0.20;;;32.20;55.20;;;;;;5051700;28;20382;-71
2022/06/12 12:07:57;;;;;;;0.40;0.20;;;32.20;56.10;;;;;;5052082;28;20412;-71
2022/06/12 12:10:58;;;;;;;0.40;0.20;;;32.00;53.30;;;;;;5051342;28;21027;-70
2022/06/12 12:13:32;;;;;;;0.40;0.20;;;32.10;54.50;;;;;;5051394;28;20901;-70
2022/06/12 12:16:06;;;;;;;0.40;0.20;;;31.90;54.40;;;;;;5050583;28;20408;-71
2022/06/12 12:18:43;;;;;;;0.40;0.20;;;32.80;48.00;;;;;;5051534;28;20404;-70
2022/06/12 12:21:37;;;;;;;0.40;0.20;;;33.10;48.60;;;;;;5050614;28;20401;-70
2022/06/12 12:24:07;;;;;;;0.40;0.20;;;33.60;47.00;;;;;;5050740;28;20440;-70
2022/06/12 12:26:38;;;;;;;0.40;0.20;;;33.20;47.00;;;;;;5051393;28;20381;-70
2022/06/12 12:29:10;;;;;;;0.40;0.20;;;33.40;50.70;;;;;;5050682;28;20377;-71
2022/06/12 12:31:36;;;;;;;0.40;0.20;;;33.80;46.60;;;;;;5051291;28;20719;-70
2022/06/12 12:34:06;;;;;;;0.40;0.20;;;33.30;46.80;;;;;;5057097;28;20393;-70
2022/06/12 12:42:23;;;;;;;0.40;0.30;;;32.10;54.70;;;;;;5090961;28;20439;-71
2022/06/12 12:44:50;;;;;;;0.40;0.20;;;32.60;56.80;;;;;;5090835;28;20405;-71
2022/06/12 12:47:21;;;;;;;0.40;0.20;;;33.00;52.60;;;;;;5090681;28;20440;-71
2022/06/12 12:49:47;;;;;;;0.40;0.20;;;32.80;50.70;;;;;;5091059;28;20378;-71
2022/06/12 12:52:21;;;;;;;0.40;0.20;;;32.90;48.90;;;;;;5090270;28;20423;-71
2022/06/12 12:54:47;;;;;;;0.50;0.40;;;32.10;47.10;;;;;;5090926;28;20457;-71
2022/06/12 12:57:32;;;;;;;0.40;0.20;;;31.70;48.80;;;;;;5090271;28;21480;-70
2022/06/12 12:59:58;;;;;;;0.40;0.20;;;32.00;50.80;;;;;;5049752;28;20373;-71
2022/06/12 13:02:30;;;;;;;0.40;0.20;;;32.20;48.80;;;;;;5050349;28;20468;-70
2022/06/12 13:04:59;;;;;;;0.40;0.20;;;32.50;46.10;;;;;;5050949;28;20402;-70
2022/06/12 13:07:25;;;;;;;0.40;0.20;;;32.60;50.30;;;;;;5069142;28;20384;-71
2022/06/12 13:10:14;;;;;;;0.40;0.20;;;32.40;46.50;;;;;;5059250;28;20392;-71
2022/06/12 13:13:01;;;;;;;0.40;0.20;;;32.60;45.20;;;;;;5070841;28;20442;-71
2022/06/12 13:15:45;;;;;;;0.40;0.20;;;32.70;46.10;;;;;;5070670;28;20474;-71
2022/06/12 13:18:47;;;;;;;0.40;0.20;;;32.30;46.60;;;;;;5069855;28;20395;-71
2022/06/12 13:21:50;;;;;;;0.40;0.20;;;32.20;50.40;;;;;;5065693;28;20419;-70
2022/06/12 13:24:27;;;;;;;0.40;0.20;;;31.80;47.30;;;;;;5069954;28;20384;-71
2022/06/12 13:26:55;;;;;;;0.40;0.20;;;32.30;46.40;;;;;;5069924;28;20439;-71
2022/06/12 13:29:22;;;;;;;0.40;0.20;;;32.70;45.20;;;;;;5070479;28;20376;-70
2022/06/12 13:32:00;;;;;;;0.40;0.20;;;32.20;45.50;;;;;;5070403;28;20474;-69
2022/06/12 13:34:28;;;;;;;0.40;0.20;;;31.90;47.30;;;;;;5070842;28;20392;-70
2022/06/12 13:36:55;;;;;;;0.40;0.30;;;32.00;45.90;;;;;;5070026;28;20380;-70
2022/06/12 13:39:23;;;;;;;0.40;0.40;;;31.90;44.40;;;;;;5070329;28;20430;-70